Villa Asturias, Puerto Rico
Current Conditions -  °F | °C
As of 5:56 PM on Tuesday 21 Oct 2014 (Local Time) from TJSJ Reporting Station
Scattered Clouds Scattered Clouds  
Wind Chill: 28°   Ceiling: Unl
Heat Index: 33°   Visibility: 10mi
Dew Point: 24°   Wind: 12mph
Humidity: 79%   Direction: 70°ENE
Pressure: 29.9"   Gusts: NA
Location:  18.4298°N, 65.9816°W
Report Text: TJSJ 212156Z 07010KT 10SM FEW026 SCT070 SCT100 28/24 A2990 RMK AO2 SLP124 T02830244
Loading
Personal Weather Stations






























Interactive Weather Map
Tropical Storm Tracking
New forecast layout! Learn more

10-Day Weather Forecast

Advertisements
Track Severe Weather on mobile